sensor_id;sensor_type;location;lat;lon;timestamp;P1;durP1;ratioP1;P2;durP2;ratioP2
51812;SDS011;38761;53.238;6.572;2022-07-12T00:02:01;4.20;;;3.53;;
51812;SDS011;38761;53.238;6.572;2022-07-12T00:04:27;4.97;;;3.80;;
51812;SDS011;38761;53.238;6.572;2022-07-12T00:06:54;6.95;;;3.95;;
51812;SDS011;38761;53.238;6.572;2022-07-12T00:09:20;4.18;;;3.67;;
51812;SDS011;38761;53.238;6.572;2022-07-12T00:11:46;4.45;;;3.83;;
51812;SDS011;38761;53.238;6.572;2022-07-12T00:14:13;4.88;;;4.00;;
51812;SDS011;38761;53.238;6.572;2022-07-12T00:19:06;6.28;;;3.88;;
51812;SDS011;38761;53.238;6.572;2022-07-12T00:21:32;5.68;;;3.95;;
51812;SDS011;38761;53.238;6.572;2022-07-12T00:23:58;4.32;;;3.45;;
51812;SDS011;38761;53.238;6.572;2022-07-12T00:26:24;7.07;;;4.68;;
51812;SDS011;38761;53.238;6.572;2022-07-12T00:28:50;5.93;;;5.30;;
51812;SDS011;38761;53.238;6.572;2022-07-12T00:31:17;5.38;;;4.75;;
51812;SDS011;38761;53.238;6.572;2022-07-12T00:33:43;8.05;;;5.45;;
51812;SDS011;38761;53.238;6.572;2022-07-12T00:36:09;7.47;;;4.15;;
51812;SDS011;38761;53.238;6.572;2022-07-12T00:38:35;8.15;;;6.03;;
51812;SDS011;38761;53.238;6.572;2022-07-12T00:41:01;8.82;;;6.15;;
51812;SDS011;38761;53.238;6.572;2022-07-12T00:43:28;6.13;;;5.40;;
51812;SDS011;38761;53.238;6.572;2022-07-12T00:45:54;9.25;;;6.00;;
51812;SDS011;38761;53.238;6.572;2022-07-12T00:48:20;10.13;;;6.20;;
51812;SDS011;38761;53.238;6.572;2022-07-12T00:50:46;7.82;;;5.25;;
51812;SDS011;38761;53.238;6.572;2022-07-12T00:53:13;5.88;;;5.28;;
51812;SDS011;38761;53.238;6.572;2022-07-12T00:55:39;5.45;;;4.82;;
51812;SDS011;38761;53.238;6.572;2022-07-12T00:58:05;6.13;;;5.00;;
51812;SDS011;38761;53.238;6.572;2022-07-12T01:00:32;9.30;;;5.45;;
51812;SDS011;38761;53.238;6.572;2022-07-12T01:02:59;9.07;;;5.70;;
51812;SDS011;38761;53.238;6.572;2022-07-12T01:05:27;7.38;;;4.90;;
51812;SDS011;38761;53.238;6.572;2022-07-12T01:07:53;7.27;;;5.40;;
51812;SDS011;38761;53.238;6.572;2022-07-12T01:10:20;6.35;;;5.38;;
51812;SDS011;38761;53.238;6.572;2022-07-12T01:12:47;7.53;;;5.07;;
51812;SDS011;38761;53.238;6.572;2022-07-12T01:15:14;6.35;;;4.90;;
51812;SDS011;38761;53.238;6.572;2022-07-12T01:17:40;5.88;;;5.18;;
51812;SDS011;38761;53.238;6.572;2022-07-12T01:20:06;6.50;;;4.53;;
51812;SDS011;38761;53.238;6.572;2022-07-12T01:22:34;6.30;;;4.75;;
51812;SDS011;38761;53.238;6.572;2022-07-12T01:25:00;9.73;;;6.00;;
51812;SDS011;38761;53.238;6.572;2022-07-12T01:27:27;5.40;;;4.60;;
51812;SDS011;38761;53.238;6.572;2022-07-12T01:29:54;7.03;;;5.35;;
51812;SDS011;38761;53.238;6.572;2022-07-12T01:32:20;5.43;;;4.82;;
51812;SDS011;38761;53.238;6.572;2022-07-12T01:34:59;7.18;;;5.10;;
51812;SDS011;38761;53.238;6.572;2022-07-12T01:37:28;4.72;;;4.30;;
51812;SDS011;38761;53.238;6.572;2022-07-12T01:39:55;6.68;;;5.10;;
51812;SDS011;38761;53.238;6.572;2022-07-12T01:42:22;6.35;;;4.55;;
51812;SDS011;38761;53.238;6.572;2022-07-12T01:44:49;13.82;;;5.93;;
51812;SDS011;38761;53.238;6.572;2022-07-12T01:47:15;7.70;;;4.35;;
51812;SDS011;38761;53.238;6.572;2022-07-12T01:49:42;5.65;;;5.03;;
51812;SDS011;38761;53.238;6.572;2022-07-12T01:52:08;5.40;;;4.80;;
51812;SDS011;38761;53.238;6.572;2022-07-12T01:54:35;5.30;;;4.75;;
51812;SDS011;38761;53.238;6.572;2022-07-12T01:57:02;5.72;;;4.75;;
51812;SDS011;38761;53.238;6.572;2022-07-12T01:59:28;5.75;;;5.10;;
51812;SDS011;38761;53.238;6.572;2022-07-12T02:01:55;4.70;;;4.30;;
51812;SDS011;38761;53.238;6.572;2022-07-12T02:04:21;6.38;;;4.68;;
51812;SDS011;38761;53.238;6.572;2022-07-12T02:06:47;4.90;;;4.47;;
51812;SDS011;38761;53.238;6.572;2022-07-12T02:09:14;9.45;;;5.32;;
51812;SDS011;38761;53.238;6.572;2022-07-12T02:11:41;8.02;;;5.00;;
51812;SDS011;38761;53.238;6.572;2022-07-12T02:14:08;11.07;;;5.60;;
51812;SDS011;38761;53.238;6.572;2022-07-12T02:16:34;5.72;;;5.13;;
51812;SDS011;38761;53.238;6.572;2022-07-12T02:19:00;6.93;;;5.68;;
51812;SDS011;38761;53.238;6.572;2022-07-12T02:21:27;8.15;;;6.00;;
51812;SDS011;38761;53.238;6.572;2022-07-12T02:23:53;6.72;;;5.88;;
51812;SDS011;38761;53.238;6.572;2022-07-12T02:26:19;6.22;;;5.50;;
51812;SDS011;38761;53.238;6.572;2022-07-12T02:28:45;7.25;;;5.50;;
51812;SDS011;38761;53.238;6.572;2022-07-12T02:31:11;7.57;;;5.38;;
51812;SDS011;38761;53.238;6.572;2022-07-12T02:33:37;5.50;;;4.85;;
51812;SDS011;38761;53.238;6.572;2022-07-12T02:36:03;10.10;;;5.10;;
51812;SDS011;38761;53.238;6.572;2022-07-12T02:38:30;5.15;;;4.65;;
51812;SDS011;38761;53.238;6.572;2022-07-12T02:40:56;5.88;;;4.32;;
51812;SDS011;38761;53.238;6.572;2022-07-12T02:43:26;5.43;;;4.93;;
51812;SDS011;38761;53.238;6.572;2022-07-12T02:45:52;7.82;;;5.95;;
51812;SDS011;38761;53.238;6.572;2022-07-12T02:48:19;5.22;;;4.72;;
51812;SDS011;38761;53.238;6.572;2022-07-12T02:50:45;5.60;;;4.95;;
51812;SDS011;38761;53.238;6.572;2022-07-12T02:53:11;5.63;;;4.95;;
51812;SDS011;38761;53.238;6.572;2022-07-12T02:55:38;6.82;;;5.72;;
51812;SDS011;38761;53.238;6.572;2022-07-12T02:58:04;8.18;;;5.93;;
51812;SDS011;38761;53.238;6.572;2022-07-12T03:00:33;6.90;;;6.20;;
51812;SDS011;38761;53.238;6.572;2022-07-12T03:03:03;7.07;;;5.93;;
51812;SDS011;38761;53.238;6.572;2022-07-12T03:05:29;10.93;;;6.38;;
51812;SDS011;38761;53.238;6.572;2022-07-12T03:07:56;5.55;;;4.93;;
51812;SDS011;38761;53.238;6.572;2022-07-12T03:10:22;9.48;;;5.07;;
51812;SDS011;38761;53.238;6.572;2022-07-12T03:12:48;7.88;;;5.28;;
51812;SDS011;38761;53.238;6.572;2022-07-12T03:15:14;7.60;;;6.80;;
51812;SDS011;38761;53.238;6.572;2022-07-12T03:17:40;10.07;;;7.20;;
51812;SDS011;38761;53.238;6.572;2022-07-12T03:20:07;10.43;;;7.30;;
51812;SDS011;38761;53.238;6.572;2022-07-12T03:22:36;7.70;;;6.60;;
51812;SDS011;38761;53.238;6.572;2022-07-12T03:25:03;8.38;;;7.05;;
51812;SDS011;38761;53.238;6.572;2022-07-12T03:27:29;9.70;;;7.32;;
51812;SDS011;38761;53.238;6.572;2022-07-12T03:29:59;9.32;;;6.45;;
51812;SDS011;38761;53.238;6.572;2022-07-12T03:32:25;9.25;;;8.30;;
51812;SDS011;38761;53.238;6.572;2022-07-12T03:34:51;9.52;;;7.88;;
51812;SDS011;38761;53.238;6.572;2022-07-12T03:37:17;10.68;;;7.82;;
51812;SDS011;38761;53.238;6.572;2022-07-12T03:39:43;8.90;;;7.32;;
51812;SDS011;38761;53.238;6.572;2022-07-12T03:42:09;8.60;;;7.68;;
51812;SDS011;38761;53.238;6.572;2022-07-12T03:44:38;8.48;;;7.68;;
51812;SDS011;38761;53.238;6.572;2022-07-12T03:47:05;10.57;;;8.60;;
51812;SDS011;38761;53.238;6.572;2022-07-12T03:49:31;13.30;;;7.95;;
51812;SDS011;38761;53.238;6.572;2022-07-12T03:51:57;10.68;;;7.47;;
51812;SDS011;38761;53.238;6.572;2022-07-12T03:54:23;17.58;;;8.98;;
51812;SDS011;38761;53.238;6.572;2022-07-12T03:56:49;9.40;;;7.78;;
51812;SDS011;38761;53.238;6.572;2022-07-12T03:59:34;11.77;;;9.05;;
51812;SDS011;38761;53.238;6.572;2022-07-12T04:02:00;14.23;;;8.55;;
51812;SDS011;38761;53.238;6.572;2022-07-12T04:04:27;15.40;;;9.68;;
51812;SDS011;38761;53.238;6.572;2022-07-12T04:06:53;16.23;;;9.80;;
51812;SDS011;38761;53.238;6.572;2022-07-12T04:09:19;12.25;;;9.20;;
51812;SDS011;38761;53.238;6.572;2022-07-12T04:11:45;25.45;;;12.48;;
51812;SDS011;38761;53.238;6.572;2022-07-12T04:14:12;19.23;;;9.85;;
51812;SDS011;38761;53.238;6.572;2022-07-12T04:16:38;10.35;;;8.07;;
51812;SDS011;38761;53.238;6.572;2022-07-12T04:19:04;13.00;;;8.82;;
51812;SDS011;38761;53.238;6.572;2022-07-12T04:21:31;19.50;;;10.05;;
51812;SDS011;38761;53.238;6.572;2022-07-12T04:23:57;13.60;;;10.43;;
51812;SDS011;38761;53.238;6.572;2022-07-12T04:26:23;15.18;;;10.40;;
51812;SDS011;38761;53.238;6.572;2022-07-12T04:28:49;15.10;;;10.57;;
51812;SDS011;38761;53.238;6.572;2022-07-12T04:31:15;15.02;;;9.35;;
51812;SDS011;38761;53.238;6.572;2022-07-12T04:33:41;21.05;;;9.45;;
51812;SDS011;38761;53.238;6.572;2022-07-12T04:36:07;72.88;;;9.90;;
51812;SDS011;38761;53.238;6.572;2022-07-12T04:38:33;23.60;;;9.43;;
51812;SDS011;38761;53.238;6.572;2022-07-12T04:40:59;21.75;;;10.00;;
51812;SDS011;38761;53.238;6.572;2022-07-12T04:43:26;11.68;;;9.38;;
51812;SDS011;38761;53.238;6.572;2022-07-12T04:45:52;12.70;;;9.77;;
51812;SDS011;38761;53.238;6.572;2022-07-12T04:48:18;14.93;;;10.60;;
51812;SDS011;38761;53.238;6.572;2022-07-12T04:50:44;14.20;;;10.40;;
51812;SDS011;38761;53.238;6.572;2022-07-12T04:53:10;14.30;;;8.88;;
51812;SDS011;38761;53.238;6.572;2022-07-12T04:55:36;13.52;;;9.23;;
51812;SDS011;38761;53.238;6.572;2022-07-12T04:58:03;18.70;;;9.68;;
51812;SDS011;38761;53.238;6.572;2022-07-12T05:00:29;14.32;;;9.63;;
51812;SDS011;38761;53.238;6.572;2022-07-12T05:02:56;17.25;;;10.07;;
51812;SDS011;38761;53.238;6.572;2022-07-12T05:05:22;22.20;;;11.52;;
51812;SDS011;38761;53.238;6.572;2022-07-12T05:07:48;18.80;;;11.10;;
51812;SDS011;38761;53.238;6.572;2022-07-12T05:10:14;17.92;;;11.90;;
51812;SDS011;38761;53.238;6.572;2022-07-12T05:12:40;15.02;;;10.05;;
51812;SDS011;38761;53.238;6.572;2022-07-12T05:15:06;16.67;;;10.55;;
51812;SDS011;38761;53.238;6.572;2022-07-12T05:17:33;11.00;;;8.27;;
51812;SDS011;38761;53.238;6.572;2022-07-12T05:19:59;11.38;;;8.88;;
51812;SDS011;38761;53.238;6.572;2022-07-12T05:22:25;14.13;;;8.73;;
51812;SDS011;38761;53.238;6.572;2022-07-12T05:24:51;10.80;;;7.38;;
51812;SDS011;38761;53.238;6.572;2022-07-12T05:27:17;10.32;;;8.02;;
51812;SDS011;38761;53.238;6.572;2022-07-12T05:29:43;11.43;;;7.05;;
51812;SDS011;38761;53.238;6.572;2022-07-12T05:32:09;9.25;;;7.50;;
51812;SDS011;38761;53.238;6.572;2022-07-12T05:34:37;11.38;;;7.07;;
51812;SDS011;38761;53.238;6.572;2022-07-12T05:37:03;8.95;;;7.13;;
51812;SDS011;38761;53.238;6.572;2022-07-12T05:39:29;8.90;;;7.15;;
51812;SDS011;38761;53.238;6.572;2022-07-12T05:41:55;9.43;;;7.60;;
51812;SDS011;38761;53.238;6.572;2022-07-12T05:44:22;12.82;;;7.15;;
51812;SDS011;38761;53.238;6.572;2022-07-12T05:46:48;9.75;;;6.18;;
51812;SDS011;38761;53.238;6.572;2022-07-12T05:49:14;8.65;;;5.57;;
51812;SDS011;38761;53.238;6.572;2022-07-12T05:51:40;12.90;;;6.13;;
51812;SDS011;38761;53.238;6.572;2022-07-12T05:54:25;10.32;;;5.97;;
51812;SDS011;38761;53.238;6.572;2022-07-12T05:56:51;7.28;;;6.05;;
51812;SDS011;38761;53.238;6.572;2022-07-12T05:59:17;9.27;;;6.47;;
51812;SDS011;38761;53.238;6.572;2022-07-12T06:01:43;8.30;;;6.00;;
51812;SDS011;38761;53.238;6.572;2022-07-12T06:04:10;7.93;;;6.20;;
51812;SDS011;38761;53.238;6.572;2022-07-12T06:06:36;8.98;;;6.40;;
51812;SDS011;38761;53.238;6.572;2022-07-12T06:09:02;7.10;;;6.40;;
51812;SDS011;38761;53.238;6.572;2022-07-12T06:11:29;5.70;;;4.80;;
51812;SDS011;38761;53.238;6.572;2022-07-12T06:13:55;5.65;;;4.80;;
51812;SDS011;38761;53.238;6.572;2022-07-12T06:16:21;5.88;;;4.60;;
51812;SDS011;38761;53.238;6.572;2022-07-12T06:18:47;7.45;;;4.30;;
51812;SDS011;38761;53.238;6.572;2022-07-12T06:21:13;4.97;;;4.03;;
51812;SDS011;38761;53.238;6.572;2022-07-12T06:23:39;7.68;;;4.78;;
51812;SDS011;38761;53.238;6.572;2022-07-12T06:26:05;4.78;;;3.97;;
51812;SDS011;38761;53.238;6.572;2022-07-12T06:28:31;4.70;;;3.83;;
51812;SDS011;38761;53.238;6.572;2022-07-12T06:30:57;5.97;;;4.65;;
51812;SDS011;38761;53.238;6.572;2022-07-12T06:33:24;4.22;;;3.72;;
51812;SDS011;38761;53.238;6.572;2022-07-12T06:35:50;7.53;;;4.25;;
51812;SDS011;38761;53.238;6.572;2022-07-12T06:38:16;4.40;;;4.00;;
51812;SDS011;38761;53.238;6.572;2022-07-12T06:40:42;6.03;;;3.92;;
51812;SDS011;38761;53.238;6.572;2022-07-12T06:43:08;5.85;;;3.53;;
51812;SDS011;38761;53.238;6.572;2022-07-12T06:45:35;4.43;;;3.97;;
51812;SDS011;38761;53.238;6.572;2022-07-12T06:48:02;6.40;;;4.13;;
51812;SDS011;38761;53.238;6.572;2022-07-12T06:50:28;4.38;;;3.95;;
51812;SDS011;38761;53.238;6.572;2022-07-12T06:52:54;4.72;;;3.92;;
51812;SDS011;38761;53.238;6.572;2022-07-12T06:55:20;4.75;;;4.05;;
51812;SDS011;38761;53.238;6.572;2022-07-12T06:57:47;4.72;;;4.13;;
51812;SDS011;38761;53.238;6.572;2022-07-12T07:00:13;3.80;;;3.38;;
51812;SDS011;38761;53.238;6.572;2022-07-12T07:02:39;3.97;;;3.25;;
51812;SDS011;38761;53.238;6.572;2022-07-12T07:05:05;3.47;;;2.80;;
51812;SDS011;38761;53.238;6.572;2022-07-12T07:07:31;6.32;;;3.42;;
51812;SDS011;38761;53.238;6.572;2022-07-12T07:09:58;3.47;;;2.90;;
51812;SDS011;38761;53.238;6.572;2022-07-12T07:12:24;4.55;;;2.88;;
51812;SDS011;38761;53.238;6.572;2022-07-12T07:14:51;7.65;;;3.28;;
51812;SDS011;38761;53.238;6.572;2022-07-12T07:17:17;3.28;;;2.85;;
51812;SDS011;38761;53.238;6.572;2022-07-12T07:19:44;3.95;;;3.22;;
51812;SDS011;38761;53.238;6.572;2022-07-12T07:22:14;2.90;;;2.53;;
51812;SDS011;38761;53.238;6.572;2022-07-12T07:24:40;4.05;;;3.05;;
51812;SDS011;38761;53.238;6.572;2022-07-12T07:27:06;8.48;;;2.80;;
51812;SDS011;38761;53.238;6.572;2022-07-12T07:29:33;4.45;;;2.97;;
51812;SDS011;38761;53.238;6.572;2022-07-12T07:32:18;5.78;;;2.60;;
51812;SDS011;38761;53.238;6.572;2022-07-12T07:34:44;5.28;;;2.35;;
51812;SDS011;38761;53.238;6.572;2022-07-12T07:37:10;4.00;;;2.33;;
51812;SDS011;38761;53.238;6.572;2022-07-12T07:39:37;8.32;;;2.55;;
51812;SDS011;38761;53.238;6.572;2022-07-12T07:42:03;2.78;;;2.50;;
51812;SDS011;38761;53.238;6.572;2022-07-12T07:44:30;5.03;;;2.30;;
51812;SDS011;38761;53.238;6.572;2022-07-12T07:46:56;2.15;;;1.90;;
51812;SDS011;38761;53.238;6.572;2022-07-12T07:49:22;3.05;;;2.20;;
51812;SDS011;38761;53.238;6.572;2022-07-12T07:51:48;2.88;;;2.20;;
51812;SDS011;38761;53.238;6.572;2022-07-12T07:54:14;4.00;;;2.33;;
51812;SDS011;38761;53.238;6.572;2022-07-12T07:56:40;2.50;;;1.83;;
51812;SDS011;38761;53.238;6.572;2022-07-12T07:59:06;3.20;;;1.92;;
51812;SDS011;38761;53.238;6.572;2022-07-12T08:01:33;2.70;;;1.73;;
51812;SDS011;38761;53.238;6.572;2022-07-12T08:04:13;2.03;;;1.83;;
51812;SDS011;38761;53.238;6.572;2022-07-12T08:06:39;2.35;;;1.90;;
51812;SDS011;38761;53.238;6.572;2022-07-12T08:09:06;3.13;;;1.70;;
51812;SDS011;38761;53.238;6.572;2022-07-12T08:11:32;1.97;;;1.77;;
51812;SDS011;38761;53.238;6.572;2022-07-12T08:13:58;2.17;;;1.50;;
51812;SDS011;38761;53.238;6.572;2022-07-12T08:16:24;3.07;;;2.00;;
51812;SDS011;38761;53.238;6.572;2022-07-12T08:18:51;2.80;;;1.88;;
51812;SDS011;38761;53.238;6.572;2022-07-12T08:21:17;3.87;;;1.43;;
51812;SDS011;38761;53.238;6.572;2022-07-12T08:23:43;4.72;;;2.00;;
51812;SDS011;38761;53.238;6.572;2022-07-12T08:26:09;8.55;;;1.95;;
51812;SDS011;38761;53.238;6.572;2022-07-12T08:28:36;2.33;;;1.83;;
51812;SDS011;38761;53.238;6.572;2022-07-12T08:31:02;5.00;;;1.60;;
51812;SDS011;38761;53.238;6.572;2022-07-12T08:33:28;3.22;;;1.80;;
51812;SDS011;38761;53.238;6.572;2022-07-12T08:35:54;1.42;;;1.33;;
51812;SDS011;38761;53.238;6.572;2022-07-12T08:38:20;3.13;;;2.10;;
51812;SDS011;38761;53.238;6.572;2022-07-12T08:40:47;2.20;;;1.60;;
51812;SDS011;38761;53.238;6.572;2022-07-12T08:43:14;2.03;;;1.60;;
51812;SDS011;38761;53.238;6.572;2022-07-12T08:45:40;2.10;;;1.73;;
51812;SDS011;38761;53.238;6.572;2022-07-12T08:48:07;2.80;;;1.58;;
51812;SDS011;38761;53.238;6.572;2022-07-12T08:50:33;2.20;;;1.65;;
51812;SDS011;38761;53.238;6.572;2022-07-12T08:53:00;2.72;;;1.80;;
51812;SDS011;38761;53.238;6.572;2022-07-12T08:55:33;2.15;;;1.95;;
51812;SDS011;38761;53.238;6.572;2022-07-12T08:58:00;3.17;;;2.05;;
51812;SDS011;38761;53.238;6.572;2022-07-12T09:00:33;1.80;;;1.33;;
51812;SDS011;38761;53.238;6.572;2022-07-12T09:03:00;3.20;;;1.70;;
51812;SDS011;38761;53.238;6.572;2022-07-12T09:05:30;3.00;;;1.85;;
51812;SDS011;38761;53.238;6.572;2022-07-12T09:08:04;2.10;;;1.70;;
51812;SDS011;38761;53.238;6.572;2022-07-12T09:10:30;2.03;;;1.55;;
51812;SDS011;38761;53.238;6.572;2022-07-12T09:12:57;3.00;;;2.27;;
51812;SDS011;38761;53.238;6.572;2022-07-12T09:15:23;2.63;;;1.88;;
51812;SDS011;38761;53.238;6.572;2022-07-12T09:18:01;3.15;;;1.98;;
51812;SDS011;38761;53.238;6.572;2022-07-12T09:20:31;2.03;;;1.45;;
51812;SDS011;38761;53.238;6.572;2022-07-12T09:22:58;3.33;;;2.40;;
51812;SDS011;38761;53.238;6.572;2022-07-12T09:27:52;2.90;;;1.90;;
51812;SDS011;38761;53.238;6.572;2022-07-12T09:30:19;3.70;;;1.60;;
51812;SDS011;38761;53.238;6.572;2022-07-12T09:32:52;2.83;;;2.35;;
51812;SDS011;38761;53.238;6.572;2022-07-12T09:35:37;2.10;;;1.90;;
51812;SDS011;38761;53.238;6.572;2022-07-12T09:38:23;2.08;;;1.85;;
51812;SDS011;38761;53.238;6.572;2022-07-12T09:40:49;6.05;;;2.13;;
51812;SDS011;38761;53.238;6.572;2022-07-12T09:43:16;3.13;;;1.90;;
51812;SDS011;38761;53.238;6.572;2022-07-12T09:45:43;2.58;;;1.88;;
51812;SDS011;38761;53.238;6.572;2022-07-12T09:48:09;2.10;;;1.70;;
51812;SDS011;38761;53.238;6.572;2022-07-12T09:50:38;4.43;;;2.10;;
51812;SDS011;38761;53.238;6.572;2022-07-12T09:53:05;2.10;;;1.90;;
51812;SDS011;38761;53.238;6.572;2022-07-12T09:55:32;4.05;;;2.20;;
51812;SDS011;38761;53.238;6.572;2022-07-12T09:58:00;2.40;;;2.15;;
51812;SDS011;38761;53.238;6.572;2022-07-12T10:00:27;3.83;;;1.52;;
51812;SDS011;38761;53.238;6.572;2022-07-12T10:02:53;3.72;;;2.08;;
51812;SDS011;38761;53.238;6.572;2022-07-12T10:05:21;3.97;;;2.15;;
51812;SDS011;38761;53.238;6.572;2022-07-12T10:07:49;3.90;;;2.08;;
51812;SDS011;38761;53.238;6.572;2022-07-12T10:10:16;5.25;;;1.80;;
51812;SDS011;38761;53.238;6.572;2022-07-12T10:12:42;2.65;;;2.40;;
51812;SDS011;38761;53.238;6.572;2022-07-12T10:15:09;3.28;;;1.73;;
51812;SDS011;38761;53.238;6.572;2022-07-12T10:17:39;2.13;;;1.80;;
51812;SDS011;38761;53.238;6.572;2022-07-12T10:20:20;3.88;;;1.48;;
51812;SDS011;38761;53.238;6.572;2022-07-12T10:22:56;2.80;;;1.80;;
51812;SDS011;38761;53.238;6.572;2022-07-12T10:25:41;9.57;;;1.67;;
51812;SDS011;38761;53.238;6.572;2022-07-12T10:28:08;2.60;;;1.73;;
51812;SDS011;38761;53.238;6.572;2022-07-12T10:30:41;2.25;;;1.40;;
51812;SDS011;38761;53.238;6.572;2022-07-12T10:33:18;1.83;;;1.65;;
51812;SDS011;38761;53.238;6.572;2022-07-12T10:36:03;3.10;;;1.60;;
51812;SDS011;38761;53.238;6.572;2022-07-12T10:38:31;1.92;;;1.52;;
51812;SDS011;38761;53.238;6.572;2022-07-12T10:40:57;3.20;;;1.60;;
51812;SDS011;38761;53.238;6.572;2022-07-12T10:43:27;1.50;;;1.00;;
51812;SDS011;38761;53.238;6.572;2022-07-12T10:46:13;3.45;;;1.15;;
51812;SDS011;38761;53.238;6.572;2022-07-12T10:48:39;5.40;;;1.15;;
51812;SDS011;38761;53.238;6.572;2022-07-12T10:51:12;0.80;;;0.80;;
51812;SDS011;38761;53.238;6.572;2022-07-12T10:53:39;1.70;;;1.00;;
51812;SDS011;38761;53.238;6.572;2022-07-12T10:56:21;4.15;;;0.90;;
51812;SDS011;38761;53.238;6.572;2022-07-12T11:01:17;1.60;;;0.90;;
51812;SDS011;38761;53.238;6.572;2022-07-12T11:03:45;12.70;;;2.25;;
51812;SDS011;38761;53.238;6.572;2022-07-12T11:06:21;1.17;;;0.70;;
51812;SDS011;38761;53.238;6.572;2022-07-12T11:08:48;1.85;;;0.60;;
51812;SDS011;38761;53.238;6.572;2022-07-12T11:11:14;3.38;;;1.00;;
51812;SDS011;38761;53.238;6.572;2022-07-12T11:13:41;3.43;;;0.70;;
51812;SDS011;38761;53.238;6.572;2022-07-12T11:16:07;1.67;;;0.63;;
51812;SDS011;38761;53.238;6.572;2022-07-12T11:18:34;2.65;;;0.80;;
51812;SDS011;38761;53.238;6.572;2022-07-12T11:21:00;1.17;;;0.70;;
51812;SDS011;38761;53.238;6.572;2022-07-12T11:23:27;2.92;;;0.90;;
51812;SDS011;38761;53.238;6.572;2022-07-12T11:25:57;1.80;;;0.80;;
51812;SDS011;38761;53.238;6.572;2022-07-12T11:28:23;2.25;;;0.95;;
51812;SDS011;38761;53.238;6.572;2022-07-12T11:30:53;1.05;;;0.70;;
51812;SDS011;38761;53.238;6.572;2022-07-12T11:33:26;2.95;;;1.20;;
51812;SDS011;38761;53.238;6.572;2022-07-12T11:35:57;3.00;;;1.10;;
51812;SDS011;38761;53.238;6.572;2022-07-12T11:38:24;1.60;;;1.10;;
51812;SDS011;38761;53.238;6.572;2022-07-12T11:40:57;1.73;;;0.70;;
51812;SDS011;38761;53.238;6.572;2022-07-12T11:43:24;0.73;;;0.60;;
51812;SDS011;38761;53.238;6.572;2022-07-12T11:45:51;1.73;;;0.73;;
51812;SDS011;38761;53.238;6.572;2022-07-12T11:48:18;1.90;;;0.80;;
51812;SDS011;38761;53.238;6.572;2022-07-12T11:50:44;1.00;;;0.80;;
51812;SDS011;38761;53.238;6.572;2022-07-12T11:53:21;1.38;;;0.80;;
51812;SDS011;38761;53.238;6.572;2022-07-12T11:55:48;3.65;;;0.75;;
51812;SDS011;38761;53.238;6.572;2022-07-12T11:58:14;1.77;;;1.00;;
51812;SDS011;38761;53.238;6.572;2022-07-12T12:00:41;1.52;;;1.10;;
51812;SDS011;38761;53.238;6.572;2022-07-12T12:03:07;2.70;;;0.85;;
51812;SDS011;38761;53.238;6.572;2022-07-12T12:05:34;1.30;;;0.73;;
51812;SDS011;38761;53.238;6.572;2022-07-12T12:08:00;1.27;;;0.52;;
51812;SDS011;38761;53.238;6.572;2022-07-12T12:10:27;2.63;;;0.63;;
51812;SDS011;38761;53.238;6.572;2022-07-12T12:12:57;0.63;;;0.52;;
51812;SDS011;38761;53.238;6.572;2022-07-12T12:15:27;1.67;;;0.80;;
51812;SDS011;38761;53.238;6.572;2022-07-12T12:20:24;2.28;;;0.73;;
51812;SDS011;38761;53.238;6.572;2022-07-12T12:22:51;2.50;;;0.88;;
51812;SDS011;38761;53.238;6.572;2022-07-12T12:25:21;1.70;;;0.75;;
51812;SDS011;38761;53.238;6.572;2022-07-12T12:27:49;2.88;;;0.50;;
51812;SDS011;38761;53.238;6.572;2022-07-12T12:30:16;4.10;;;0.70;;
51812;SDS011;38761;53.238;6.572;2022-07-12T12:32:50;1.48;;;0.63;;
51812;SDS011;38761;53.238;6.572;2022-07-12T12:35:18;1.42;;;0.60;;
51812;SDS011;38761;53.238;6.572;2022-07-12T12:37:51;1.20;;;0.60;;
51812;SDS011;38761;53.238;6.572;2022-07-12T12:40:21;2.13;;;0.88;;
51812;SDS011;38761;53.238;6.572;2022-07-12T12:42:48;1.02;;;0.60;;
51812;SDS011;38761;53.238;6.572;2022-07-12T12:45:18;2.75;;;0.73;;
51812;SDS011;38761;53.238;6.572;2022-07-12T12:47:51;3.50;;;0.65;;
51812;SDS011;38761;53.238;6.572;2022-07-12T12:50:17;1.20;;;0.77;;
51812;SDS011;38761;53.238;6.572;2022-07-12T12:52:47;1.33;;;0.80;;
51812;SDS011;38761;53.238;6.572;2022-07-12T12:55:14;1.75;;;0.80;;
51812;SDS011;38761;53.238;6.572;2022-07-12T12:57:40;1.35;;;1.00;;
51812;SDS011;38761;53.238;6.572;2022-07-12T13:00:07;1.58;;;0.95;;
51812;SDS011;38761;53.238;6.572;2022-07-12T13:02:33;4.68;;;1.67;;
51812;SDS011;38761;53.238;6.572;2022-07-12T13:04:59;3.45;;;1.30;;
51812;SDS011;38761;53.238;6.572;2022-07-12T13:07:26;1.83;;;1.30;;
51812;SDS011;38761;53.238;6.572;2022-07-12T13:09:53;1.30;;;1.00;;
51812;SDS011;38761;53.238;6.572;2022-07-12T13:12:19;4.47;;;1.33;;
51812;SDS011;38761;53.238;6.572;2022-07-12T13:14:45;1.48;;;1.20;;
51812;SDS011;38761;53.238;6.572;2022-07-12T13:17:11;2.08;;;1.20;;
51812;SDS011;38761;53.238;6.572;2022-07-12T13:19:37;1.73;;;1.20;;
51812;SDS011;38761;53.238;6.572;2022-07-12T13:22:03;3.03;;;1.95;;
51812;SDS011;38761;53.238;6.572;2022-07-12T13:24:31;1.85;;;1.30;;
51812;SDS011;38761;53.238;6.572;2022-07-12T13:26:57;4.75;;;1.50;;
51812;SDS011;38761;53.238;6.572;2022-07-12T13:29:23;5.05;;;1.50;;
51812;SDS011;38761;53.238;6.572;2022-07-12T13:31:49;3.38;;;1.40;;
51812;SDS011;38761;53.238;6.572;2022-07-12T13:34:16;3.40;;;1.02;;
51812;SDS011;38761;53.238;6.572;2022-07-12T13:36:42;2.47;;;1.10;;
51812;SDS011;38761;53.238;6.572;2022-07-12T13:39:08;5.50;;;2.45;;
51812;SDS011;38761;53.238;6.572;2022-07-12T13:41:52;3.03;;;1.10;;
51812;SDS011;38761;53.238;6.572;2022-07-12T13:44:19;1.45;;;1.00;;
51812;SDS011;38761;53.238;6.572;2022-07-12T13:46:45;4.37;;;1.00;;
51812;SDS011;38761;53.238;6.572;2022-07-12T13:49:11;6.23;;;1.20;;
51812;SDS011;38761;53.238;6.572;2022-07-12T13:51:37;3.35;;;0.70;;
51812;SDS011;38761;53.238;6.572;2022-07-12T13:54:03;2.10;;;0.85;;
51812;SDS011;38761;53.238;6.572;2022-07-12T13:56:29;1.55;;;0.73;;
51812;SDS011;38761;53.238;6.572;2022-07-12T13:58:55;4.78;;;0.90;;
51812;SDS011;38761;53.238;6.572;2022-07-12T14:01:22;1.25;;;0.82;;
51812;SDS011;38761;53.238;6.572;2022-07-12T14:03:48;1.42;;;0.80;;
51812;SDS011;38761;53.238;6.572;2022-07-12T14:06:14;2.90;;;0.80;;
51812;SDS011;38761;53.238;6.572;2022-07-12T14:08:40;5.97;;;1.43;;
51812;SDS011;38761;53.238;6.572;2022-07-12T14:11:06;1.83;;;0.87;;
51812;SDS011;38761;53.238;6.572;2022-07-12T14:13:32;1.50;;;1.10;;
51812;SDS011;38761;53.238;6.572;2022-07-12T14:15:58;1.20;;;0.93;;
51812;SDS011;38761;53.238;6.572;2022-07-12T14:18:25;3.13;;;1.40;;
51812;SDS011;38761;53.238;6.572;2022-07-12T14:20:51;3.80;;;1.37;;
51812;SDS011;38761;53.238;6.572;2022-07-12T14:23:17;1.20;;;0.90;;
51812;SDS011;38761;53.238;6.572;2022-07-12T14:28:10;2.03;;;1.33;;
51812;SDS011;38761;53.238;6.572;2022-07-12T14:30:36;2.17;;;1.10;;
51812;SDS011;38761;53.238;6.572;2022-07-12T14:33:02;3.03;;;1.00;;
51812;SDS011;38761;53.238;6.572;2022-07-12T14:35:28;2.55;;;1.10;;
51812;SDS011;38761;53.238;6.572;2022-07-12T14:37:54;1.13;;;1.00;;
51812;SDS011;38761;53.238;6.572;2022-07-12T14:40:21;1.75;;;1.35;;
51812;SDS011;38761;53.238;6.572;2022-07-12T14:42:47;5.20;;;1.47;;
51812;SDS011;38761;53.238;6.572;2022-07-12T14:45:13;2.50;;;1.30;;
51812;SDS011;38761;53.238;6.572;2022-07-12T14:47:39;2.90;;;1.57;;
51812;SDS011;38761;53.238;6.572;2022-07-12T14:50:05;2.60;;;1.10;;
51812;SDS011;38761;53.238;6.572;2022-07-12T14:52:32;5.25;;;1.40;;
51812;SDS011;38761;53.238;6.572;2022-07-12T14:54:58;1.80;;;1.47;;
51812;SDS011;38761;53.238;6.572;2022-07-12T14:57:24;5.75;;;1.63;;
51812;SDS011;38761;53.238;6.572;2022-07-12T14:59:51;1.53;;;1.10;;